Time;durP1;ratioP1;P1;durP2;ratioP2;P2;SDS_P1;SDS_P2;PMS_P1;PMS_P2;Temp;Humidity;BMP_temperature;BMP_pressure;BME280_temperature;BME280_humidity;BME280_pressure;Samples;Min_cycle;Max_cycle;Signal;HPM_P1;HPM_P2
2022/01/22 00:00:11;;;;;;;0.60;0.60;;;5.20;99.90;;;;;;5019899;28;20490;-74
2022/01/22 00:02:37;;;;;;;0.60;0.60;;;5.20;99.90;;;;;;5009883;28;20199;-74
2022/01/22 00:05:04;;;;;;;0.60;0.50;;;5.10;99.90;;;;;;5010345;28;20772;-74
2022/01/22 00:07:30;;;;;;;0.60;0.60;;;5.10;99.90;;;;;;5009028;28;20200;-73
2022/01/22 00:10:02;;;;;;;1.20;0.97;;;5.10;99.90;;;;;;5008944;28;20518;-73
2022/01/22 00:12:43;;;;;;;0.80;0.80;;;5.10;99.90;;;;;;5008994;28;20183;-73
2022/01/22 00:15:11;;;;;;;0.60;0.50;;;5.10;99.90;;;;;;5009403;28;21016;-73
2022/01/22 00:17:37;;;;;;;1.27;1.20;;;5.10;99.90;;;;;;5009521;28;20458;-74
2022/01/22 00:20:04;;;;;;;0.60;0.60;;;5.10;99.90;;;;;;5010040;28;20837;-74
2022/01/22 00:22:32;;;;;;;0.60;0.50;;;5.10;99.90;;;;;;5009880;28;20212;-74
2022/01/22 00:25:00;;;;;;;0.90;0.90;;;5.10;99.90;;;;;;5009675;28;20472;-73
2022/01/22 00:27:27;;;;;;;0.70;0.70;;;5.10;99.90;;;;;;5022065;28;20475;-74
2022/01/22 00:29:53;;;;;;;1.43;1.33;;;5.10;99.90;;;;;;5016769;28;20865;-73
2022/01/22 00:32:18;;;;;;;2.20;2.10;;;5.10;99.90;;;;;;5010526;28;20455;-73
2022/01/22 00:34:44;;;;;;;1.07;1.00;;;5.10;99.90;;;;;;5011733;28;20430;-73
2022/01/22 00:37:10;;;;;;;0.60;0.50;;;5.10;99.90;;;;;;5010254;28;20192;-73
2022/01/22 00:39:36;;;;;;;2.60;2.40;;;5.10;99.90;;;;;;5018395;28;20708;-73
2022/01/22 00:42:13;;;;;;;0.93;0.93;;;5.10;99.90;;;;;;5004429;28;20502;-73
2022/01/22 00:44:40;;;;;;;1.03;0.93;;;5.10;99.90;;;;;;5011838;28;20176;-73
2022/01/22 00:47:06;;;;;;;0.70;0.70;;;5.10;99.90;;;;;;5011373;28;20447;-73
2022/01/22 00:49:32;;;;;;;0.60;0.60;;;5.00;99.90;;;;;;5011449;28;20427;-73
2022/01/22 00:51:57;;;;;;;0.60;0.50;;;5.00;99.90;;;;;;5011761;28;20195;-73
2022/01/22 00:54:23;;;;;;;0.63;0.57;;;5.00;99.90;;;;;;5011692;28;20907;-73
2022/01/22 00:56:49;;;;;;;0.60;0.60;;;5.00;99.90;;;;;;5011252;28;20287;-73
2022/01/22 00:59:15;;;;;;;1.33;1.23;;;5.00;99.90;;;;;;5011665;28;20196;-73
2022/01/22 01:01:41;;;;;;;0.60;0.50;;;5.00;99.90;;;;;;5012344;28;20180;-74
2022/01/22 01:04:09;;;;;;;1.37;1.27;;;5.10;99.90;;;;;;5012376;28;20431;-73
2022/01/22 01:06:34;;;;;;;2.63;2.03;;;5.10;99.90;;;;;;5011213;28;20249;-72
2022/01/22 01:09:02;;;;;;;0.80;0.80;;;5.00;99.90;;;;;;5011158;28;20454;-73
2022/01/22 01:11:31;;;;;;;0.60;0.57;;;5.10;99.90;;;;;;5011979;28;20801;-74
2022/01/22 01:14:00;;;;;;;0.70;0.70;;;5.00;99.90;;;;;;4995996;28;20424;-73
2022/01/22 01:35:17;;;;;;;1.37;1.30;;;4.80;99.90;;;;;;5011578;28;20427;-74
2022/01/22 01:37:43;;;;;;;0.60;0.50;;;4.80;99.90;;;;;;5009423;28;20246;-73
2022/01/22 01:40:10;;;;;;;1.30;1.07;;;4.80;99.90;;;;;;5009756;28;20569;-73
2022/01/22 01:42:46;;;;;;;0.60;0.53;;;4.80;99.90;;;;;;5009353;28;20194;-73
2022/01/22 01:45:11;;;;;;;0.70;0.70;;;4.80;99.90;;;;;;5011731;28;20423;-74
2022/01/22 01:47:39;;;;;;;0.60;0.60;;;4.80;99.90;;;;;;5011622;28;20447;-74
2022/01/22 01:50:06;;;;;;;0.70;0.70;;;4.80;99.90;;;;;;5012049;28;20176;-74
2022/01/22 01:52:45;;;;;;;1.33;1.27;;;4.80;99.90;;;;;;5010283;28;20430;-73
2022/01/22 01:55:19;;;;;;;0.60;0.60;;;4.70;99.90;;;;;;5013117;28;20443;-73
2022/01/22 01:57:46;;;;;;;0.60;0.53;;;4.80;99.90;;;;;;5025289;28;20875;-74
2022/01/22 02:00:22;;;;;;;1.63;1.53;;;4.80;99.90;;;;;;5011544;28;20493;-74
2022/01/22 02:02:49;;;;;;;0.60;0.53;;;4.80;99.90;;;;;;5011216;28;20822;-74
2022/01/22 02:05:16;;;;;;;0.60;0.60;;;4.80;99.90;;;;;;5010939;28;20834;-73
2022/01/22 02:07:44;;;;;;;0.90;0.90;;;4.80;99.90;;;;;;5009870;28;20492;-73
2022/01/22 02:10:15;;;;;;;1.13;1.13;;;4.80;99.90;;;;;;5011123;28;20963;-73
2022/01/22 02:23:40;;;;;;;0.60;0.60;;;4.80;99.90;;;;;;5011623;28;20434;-74
2022/01/22 02:26:08;;;;;;;0.83;0.80;;;4.80;99.90;;;;;;5011090;28;20430;-75
2022/01/22 02:28:34;;;;;;;0.60;0.60;;;4.80;99.90;;;;;;5009912;28;20465;-73
2022/01/22 02:31:54;;;;;;;1.17;1.07;;;4.80;99.90;;;;;;5010364;28;20510;-73
2022/01/22 02:36:42;;;;;;;0.90;0.90;;;4.80;99.90;;;;;;5010206;28;20419;-72
2022/01/22 02:41:41;;;;;;;2.80;1.43;;;4.80;99.90;;;;;;5009844;28;20419;-73
2022/01/22 02:44:11;;;;;;;0.63;0.60;;;4.80;99.90;;;;;;5008811;28;20442;-73
2022/01/22 02:46:41;;;;;;;1.13;1.13;;;4.80;99.90;;;;;;5009939;28;20473;-73
2022/01/22 02:49:07;;;;;;;0.60;0.60;;;4.70;99.90;;;;;;5010063;28;20430;-73
2022/01/22 02:51:33;;;;;;;0.70;0.70;;;4.80;99.90;;;;;;5009875;28;20426;-73
2022/01/22 02:53:59;;;;;;;1.53;1.43;;;4.80;99.90;;;;;;5008955;28;20268;-74
2022/01/22 02:56:25;;;;;;;1.40;1.30;;;4.80;99.90;;;;;;5009910;28;20203;-73
2022/01/22 02:58:52;;;;;;;0.70;0.60;;;4.80;99.90;;;;;;5009606;28;20497;-74
2022/01/22 03:01:18;;;;;;;1.33;0.87;;;4.80;99.90;;;;;;5010455;28;20176;-73
2022/01/22 03:03:44;;;;;;;1.17;1.17;;;4.80;99.90;;;;;;5009655;28;20421;-73
2022/01/22 03:06:10;;;;;;;0.97;0.97;;;4.80;99.90;;;;;;5009889;28;20423;-73
2022/01/22 03:08:38;;;;;;;1.13;1.13;;;4.80;99.90;;;;;;5009276;28;20447;-74
2022/01/22 03:11:07;;;;;;;1.03;0.93;;;4.80;99.90;;;;;;5009507;28;20427;-73
2022/01/22 03:16:09;;;;;;;0.60;0.60;;;4.80;99.90;;;;;;5009957;28;20510;-74
2022/01/22 03:21:32;;;;;;;1.10;1.10;;;4.80;99.90;;;;;;5010319;28;20423;-74
2022/01/22 03:29:37;;;;;;;0.80;0.80;;;4.90;99.90;;;;;;5010984;28;20441;-73
2022/01/22 03:32:04;;;;;;;0.70;0.70;;;4.90;99.90;;;;;;5007827;28;20477;-73
2022/01/22 03:34:36;;;;;;;0.80;0.80;;;4.90;99.90;;;;;;5008504;28;21115;-73
2022/01/22 03:37:02;;;;;;;1.07;0.90;;;4.90;99.90;;;;;;4995618;28;20504;-73
2022/01/22 03:39:27;;;;;;;5.80;2.70;;;4.90;99.90;;;;;;5004532;28;20466;-73
2022/01/22 03:41:53;;;;;;;1.53;1.27;;;4.90;99.90;;;;;;5005890;28;20427;-74
2022/01/22 03:44:19;;;;;;;0.90;0.90;;;4.90;99.90;;;;;;5008175;28;20172;-73
2022/01/22 03:46:45;;;;;;;1.37;1.20;;;4.90;99.90;;;;;;5003747;28;20551;-73
2022/01/22 03:49:11;;;;;;;2.00;1.80;;;4.90;99.90;;;;;;4989444;28;20432;-73
2022/01/22 03:51:37;;;;;;;0.67;0.67;;;4.90;99.90;;;;;;4990557;28;20420;-73
2022/01/22 03:54:03;;;;;;;0.60;0.60;;;4.90;99.90;;;;;;5007680;28;20302;-73
2022/01/22 03:56:29;;;;;;;1.50;1.40;;;5.00;99.90;;;;;;5007697;28;20658;-74
2022/01/22 03:58:54;;;;;;;1.17;1.10;;;5.00;99.90;;;;;;4999572;28;20543;-73
2022/01/22 04:04:12;;;;;;;1.30;1.20;;;5.00;99.90;;;;;;5009274;28;20176;-73
2022/01/22 04:09:45;;;;;;;1.37;1.27;;;5.00;99.90;;;;;;5053469;28;20419;-73
2022/01/22 04:12:14;;;;;;;0.90;0.90;;;5.00;99.90;;;;;;5053289;28;20433;-73
2022/01/22 04:14:47;;;;;;;3.10;1.97;;;5.00;99.90;;;;;;5021925;28;20837;-73
2022/01/22 04:25:09;;;;;;;0.60;0.53;;;5.10;99.90;;;;;;5013081;28;20426;-74
2022/01/22 04:27:34;;;;;;;0.60;0.60;;;5.10;99.90;;;;;;5013865;28;20445;-73
2022/01/22 04:30:00;;;;;;;0.63;0.60;;;5.10;99.90;;;;;;5011536;28;20415;-73
2022/01/22 04:32:28;;;;;;;1.73;1.63;;;5.10;99.90;;;;;;5012113;28;20259;-73
2022/01/22 04:34:54;;;;;;;1.30;0.93;;;5.10;99.90;;;;;;5011967;28;20205;-74
2022/01/22 04:37:20;;;;;;;0.70;0.70;;;5.10;99.90;;;;;;5011735;28;20530;-74
2022/01/22 04:39:47;;;;;;;2.03;1.93;;;5.10;99.90;;;;;;5012083;28;20455;-75
2022/01/22 04:42:14;;;;;;;1.57;1.47;;;5.10;99.90;;;;;;5011966;28;20423;-73
2022/01/22 04:44:51;;;;;;;0.60;0.50;;;5.10;99.90;;;;;;5011800;28;20766;-73
2022/01/22 04:47:33;;;;;;;0.60;0.50;;;5.10;99.90;;;;;;5011204;28;20446;-73
2022/01/22 04:54:57;;;;;;;0.77;0.77;;;5.10;99.90;;;;;;5028410;28;20429;-73
2022/01/22 04:55:28;;;;;;;0.60;0.60;;;5.10;99.90;;;;;;5031544;28;20433;-73
2022/01/22 04:57:54;;;;;;;0.60;0.53;;;5.20;99.90;;;;;;5020251;28;20862;-74
2022/01/22 05:00:20;;;;;;;0.77;0.77;;;5.20;99.90;;;;;;5011293;28;20461;-73
2022/01/22 05:02:45;;;;;;;1.40;1.30;;;5.20;99.90;;;;;;5011519;28;20176;-73
2022/01/22 05:05:11;;;;;;;0.63;0.63;;;5.20;99.90;;;;;;5011854;28;20200;-74
2022/01/22 05:07:37;;;;;;;0.87;0.87;;;5.20;99.90;;;;;;5011568;28;20237;-73
2022/01/22 05:10:04;;;;;;;0.90;0.90;;;5.20;99.90;;;;;;5012014;28;20423;-74
2022/01/22 05:12:30;;;;;;;1.23;1.23;;;5.20;99.90;;;;;;5011827;28;20180;-74
2022/01/22 05:14:55;;;;;;;0.80;0.80;;;5.20;99.90;;;;;;5011869;28;20785;-74
2022/01/22 05:17:21;;;;;;;0.70;0.70;;;5.30;99.90;;;;;;5010734;28;20204;-73
2022/01/22 05:19:59;;;;;;;1.17;1.13;;;5.20;99.90;;;;;;5010962;28;20227;-73
2022/01/22 05:22:47;;;;;;;1.03;0.93;;;5.30;99.90;;;;;;5010981;28;20175;-73
2022/01/22 05:25:20;;;;;;;3.70;1.10;;;5.30;99.90;;;;;;4997528;28;20419;-73
2022/01/22 05:28:03;;;;;;;2.33;2.13;;;5.20;99.90;;;;;;5010613;28;20443;-73
2022/01/22 05:38:34;;;;;;;1.43;1.33;;;5.30;99.90;;;;;;4999755;28;20450;-73
2022/01/22 05:41:00;;;;;;;2.30;2.20;;;5.30;99.90;;;;;;5010944;28;20522;-73
2022/01/22 05:43:26;;;;;;;1.53;1.13;;;5.30;99.90;;;;;;5010817;28;20515;-73
2022/01/22 05:45:52;;;;;;;0.80;0.80;;;5.20;99.90;;;;;;5010838;28;20455;-73
2022/01/22 05:48:18;;;;;;;1.37;1.27;;;5.30;99.90;;;;;;5010471;28;20496;-73
2022/01/22 05:50:58;;;;;;;5.20;1.70;;;5.30;99.90;;;;;;5011028;28;20983;-73
2022/01/22 06:01:20;;;;;;;1.40;1.33;;;5.30;99.90;;;;;;5010934;28;20434;-73
2022/01/22 06:03:46;;;;;;;1.47;1.40;;;5.30;99.90;;;;;;5022082;28;20416;-73
2022/01/22 06:06:12;;;;;;;1.00;1.00;;;5.30;99.90;;;;;;5010701;28;20514;-73
2022/01/22 06:08:48;;;;;;;3.37;3.20;;;5.30;99.90;;;;;;5010162;28;20496;-73
2022/01/22 06:11:21;;;;;;;1.30;1.20;;;5.30;99.90;;;;;;5009282;28;20502;-73
2022/01/22 06:13:47;;;;;;;0.60;0.60;;;5.30;99.90;;;;;;5010561;28;20426;-73
2022/01/22 06:16:15;;;;;;;2.93;1.03;;;5.30;99.90;;;;;;5009211;28;20468;-73
2022/01/22 06:18:42;;;;;;;1.00;1.00;;;5.30;99.90;;;;;;5009860;28;20754;-73
2022/01/22 06:21:10;;;;;;;1.00;1.00;;;5.40;99.90;;;;;;5010598;28;20424;-73
2022/01/22 06:23:38;;;;;;;1.40;1.30;;;5.30;99.90;;;;;;5010117;28;20420;-73
2022/01/22 06:26:05;;;;;;;2.40;2.30;;;5.30;99.90;;;;;;5010450;28;20829;-73
2022/01/22 06:28:31;;;;;;;1.13;1.03;;;5.30;99.90;;;;;;5009183;28;20459;-73
2022/01/22 06:30:58;;;;;;;1.73;1.63;;;5.30;99.90;;;;;;5004729;28;21124;-73
2022/01/22 06:33:24;;;;;;;0.67;0.67;;;5.30;99.90;;;;;;5010262;28;20508;-73
2022/01/22 06:35:50;;;;;;;2.03;1.93;;;5.40;99.90;;;;;;5010249;28;20434;-73
2022/01/22 06:38:16;;;;;;;2.13;1.63;;;5.40;99.90;;;;;;5015804;28;20442;-73
2022/01/22 06:43:28;;;;;;;0.80;0.80;;;5.40;99.90;;;;;;5010012;28;20478;-73
2022/01/22 06:45:53;;;;;;;1.13;1.03;;;5.40;99.90;;;;;;5010143;28;20420;-73
2022/01/22 06:48:19;;;;;;;0.70;0.70;;;5.40;99.90;;;;;;5009842;28;20443;-73
2022/01/22 06:50:45;;;;;;;12.93;3.53;;;5.40;99.90;;;;;;5009641;28;20180;-73
2022/01/22 06:53:10;;;;;;;2.10;2.00;;;5.40;99.90;;;;;;5009665;28;20184;-73
2022/01/22 06:55:52;;;;;;;3.80;3.50;;;5.40;99.90;;;;;;5009878;28;20188;-73
2022/01/22 06:58:17;;;;;;;1.87;1.60;;;5.30;99.90;;;;;;5003497;28;20664;-73
2022/01/22 07:00:43;;;;;;;1.13;1.03;;;5.40;99.90;;;;;;5009363;28;20461;-73
2022/01/22 07:03:09;;;;;;;0.73;0.73;;;5.40;99.90;;;;;;5009908;28;20312;-73
2022/01/22 07:05:35;;;;;;;1.40;1.30;;;5.40;99.90;;;;;;5009797;28;20184;-73
2022/01/22 07:08:00;;;;;;;1.67;1.27;;;5.50;99.90;;;;;;5009516;28;20504;-73
2022/01/22 07:10:26;;;;;;;2.30;1.23;;;5.50;99.90;;;;;;5009418;28;20259;-74
2022/01/22 07:12:51;;;;;;;4.10;2.40;;;5.50;99.90;;;;;;5009001;28;20208;-73
2022/01/22 07:15:17;;;;;;;2.03;1.93;;;5.50;99.90;;;;;;5023072;28;20199;-73
2022/01/22 07:17:44;;;;;;;0.60;0.60;;;5.50;99.90;;;;;;5014664;28;20222;-73
2022/01/22 07:20:14;;;;;;;2.20;2.10;;;5.50;99.90;;;;;;5007970;28;20590;-74
2022/01/22 07:22:50;;;;;;;2.50;2.40;;;5.40;99.90;;;;;;5009224;28;20454;-73
2022/01/22 07:25:16;;;;;;;0.70;0.70;;;5.40;99.90;;;;;;5014495;28;20510;-73
2022/01/22 07:27:42;;;;;;;2.40;2.30;;;5.40;99.90;;;;;;5007187;28;20470;-72
2022/01/22 07:30:08;;;;;;;4.80;4.33;;;5.40;99.90;;;;;;5009143;28;20463;-72
2022/01/22 07:32:37;;;;;;;4.23;2.43;;;5.40;99.90;;;;;;5009155;28;20192;-72
2022/01/22 07:35:06;;;;;;;1.20;1.20;;;5.30;99.90;;;;;;5009090;28;20431;-73
2022/01/22 07:37:31;;;;;;;1.77;1.70;;;5.30;99.90;;;;;;5007688;28;20817;-73
2022/01/22 07:39:57;;;;;;;1.90;1.80;;;5.30;99.90;;;;;;5008664;28;20451;-73
2022/01/22 07:42:23;;;;;;;1.73;1.13;;;5.30;99.90;;;;;;5009392;28;20187;-73
2022/01/22 07:44:49;;;;;;;2.70;2.50;;;5.40;99.90;;;;;;5008885;28;20824;-73
2022/01/22 07:47:14;;;;;;;2.33;2.13;;;5.40;99.90;;;;;;5008924;28;20669;-73
2022/01/22 07:49:40;;;;;;;7.60;2.20;;;5.40;99.90;;;;;;5009004;28;20180;-73
2022/01/22 07:52:06;;;;;;;0.70;0.70;;;5.40;99.90;;;;;;5008165;28;20176;-73
2022/01/22 07:54:32;;;;;;;1.80;1.70;;;5.40;99.90;;;;;;5008559;28;20531;-73
2022/01/22 07:56:59;;;;;;;3.20;2.17;;;5.40;99.90;;;;;;5009239;28;20932;-73
2022/01/22 07:59:24;;;;;;;3.00;1.83;;;5.50;99.90;;;;;;5007260;28;20467;-73
2022/01/22 08:01:50;;;;;;;0.60;0.60;;;5.40;99.90;;;;;;5008552;28;20450;-73
2022/01/22 08:04:22;;;;;;;0.70;0.60;;;5.50;99.90;;;;;;5009180;28;20674;-73
2022/01/22 08:06:48;;;;;;;4.23;1.70;;;5.60;99.90;;;;;;5008626;28;20275;-73
2022/01/22 08:09:14;;;;;;;2.27;2.07;;;5.60;99.90;;;;;;5008510;28;20838;-73
2022/01/22 08:11:39;;;;;;;1.23;1.23;;;5.70;99.90;;;;;;5008737;28;20176;-73
2022/01/22 08:14:07;;;;;;;2.00;1.90;;;5.70;99.90;;;;;;5008978;28;20653;-73
2022/01/22 08:16:32;;;;;;;1.33;1.23;;;5.70;99.90;;;;;;5008201;28;20177;-73
2022/01/22 08:18:58;;;;;;;1.57;1.47;;;5.80;99.90;;;;;;5008167;28;20519;-73
2022/01/22 08:21:24;;;;;;;1.33;1.23;;;5.80;99.90;;;;;;5008560;28;20181;-73
2022/01/22 08:23:50;;;;;;;1.40;1.30;;;5.90;99.90;;;;;;5007625;28;20187;-73
2022/01/22 08:26:20;;;;;;;2.80;2.70;;;5.90;99.90;;;;;;5008814;28;20431;-73
2022/01/22 08:28:57;;;;;;;3.67;3.53;;;6.00;99.90;;;;;;5008315;28;20641;-73
2022/01/22 08:36:45;;;;;;;2.40;2.30;;;6.00;99.90;;;;;;5008784;28;21036;-73
2022/01/22 08:39:11;;;;;;;1.40;1.33;;;6.00;99.90;;;;;;5008106;28;20454;-73
2022/01/22 08:41:37;;;;;;;1.13;1.03;;;6.10;99.90;;;;;;5006925;28;20945;-73
2022/01/22 08:44:03;;;;;;;3.03;1.70;;;6.20;99.90;;;;;;5008423;28;20431;-73
2022/01/22 08:46:29;;;;;;;0.60;0.60;;;6.20;99.90;;;;;;5007893;28;21094;-73
2022/01/22 08:48:55;;;;;;;0.60;0.60;;;6.20;99.90;;;;;;5007682;28;20430;-73
2022/01/22 08:51:21;;;;;;;1.57;1.47;;;6.20;99.90;;;;;;5008349;28;20423;-73
2022/01/22 08:53:47;;;;;;;1.87;1.67;;;6.30;99.90;;;;;;5010741;28;20211;-74
2022/01/22 08:56:13;;;;;;;1.23;1.13;;;6.30;99.90;;;;;;5010529;28;20176;-73
2022/01/22 08:58:38;;;;;;;2.27;2.17;;;6.40;99.90;;;;;;5010924;28;20800;-73
2022/01/22 09:01:05;;;;;;;2.90;2.70;;;6.40;99.90;;;;;;5019059;28;20174;-73
2022/01/22 09:03:31;;;;;;;1.33;1.23;;;6.40;99.90;;;;;;5023335;28;20172;-73
2022/01/22 09:05:58;;;;;;;4.23;4.00;;;6.50;99.90;;;;;;5003457;28;20423;-73
2022/01/22 09:08:25;;;;;;;1.00;0.90;;;6.50;99.90;;;;;;5011093;28;20439;-73
2022/01/22 09:10:52;;;;;;;0.60;0.60;;;6.50;99.90;;;;;;5010738;28;20459;-73
2022/01/22 09:13:19;;;;;;;1.60;1.50;;;6.50;99.90;;;;;;5008895;28;20467;-73
2022/01/22 09:15:45;;;;;;;0.73;0.73;;;6.50;99.90;;;;;;5011255;28;20440;-73
2022/01/22 09:18:12;;;;;;;1.07;1.00;;;6.60;99.90;;;;;;5004464;28;20467;-73
2022/01/22 09:23:05;;;;;;;3.97;2.00;;;6.60;99.90;;;;;;5011241;28;20435;-73
2022/01/22 09:25:30;;;;;;;3.43;1.70;;;6.70;99.90;;;;;;5011377;28;20266;-73
2022/01/22 09:27:56;;;;;;;3.37;1.53;;;6.80;99.90;;;;;;5010829;28;20606;-73
2022/01/22 09:30:22;;;;;;;4.83;1.20;;;6.80;99.90;;;;;;5011775;28;20660;-73
2022/01/22 09:32:48;;;;;;;1.20;1.20;;;6.80;99.90;;;;;;5018492;28;20233;-72
2022/01/22 09:35:13;;;;;;;1.30;1.30;;;6.80;99.90;;;;;;5011283;28;20842;-72
2022/01/22 09:37:39;;;;;;;1.37;1.37;;;6.80;99.90;;;;;;5011129;28;20264;-73
2022/01/22 09:40:06;;;;;;;1.23;1.20;;;6.90;99.90;;;;;;5011315;28;20221;-73
2022/01/22 09:42:32;;;;;;;0.80;0.80;;;7.00;99.90;;;;;;5010656;28;20191;-73
2022/01/22 09:44:57;;;;;;;1.80;1.57;;;7.20;99.90;;;;;;5010927;28;20965;-73
2022/01/22 09:47:23;;;;;;;1.77;1.10;;;7.40;99.90;;;;;;5011057;28;20201;-73
2022/01/22 09:49:49;;;;;;;1.30;1.20;;;7.50;99.90;;;;;;5009473;28;20271;-73
2022/01/22 09:52:15;;;;;;;1.03;0.90;;;7.50;99.90;;;;;;5024786;28;20229;-73
2022/01/22 09:54:40;;;;;;;0.80;0.80;;;7.60;99.90;;;;;;5028682;28;20237;-73
2022/01/22 09:57:08;;;;;;;3.83;3.50;;;7.70;99.90;;;;;;5015948;28;20804;-73
2022/01/22 09:59:34;;;;;;;1.97;1.37;;;7.80;99.90;;;;;;5010017;28;20204;-73
2022/01/22 10:02:20;;;;;;;0.67;0.60;;;7.80;99.90;;;;;;5011188;28;21128;-73
2022/01/22 10:04:48;;;;;;;2.93;2.07;;;7.70;99.90;;;;;;5010425;28;20188;-73
2022/01/22 10:07:21;;;;;;;1.53;1.43;;;7.70;99.90;;;;;;5010751;28;21012;-73
2022/01/22 10:10:06;;;;;;;0.70;0.60;;;7.70;99.90;;;;;;5017931;28;20463;-73
2022/01/22 10:12:43;;;;;;;1.00;1.00;;;7.70;99.90;;;;;;5006883;28;20423;-73
2022/01/22 10:15:16;;;;;;;0.97;0.97;;;7.60;99.90;;;;;;5011587;28;20439;-73
2022/01/22 10:17:56;;;;;;;3.13;1.63;;;7.60;99.90;;;;;;5000443;28;20486;-73
2022/01/22 10:20:21;;;;;;;1.43;1.33;;;7.50;99.90;;;;;;5010760;28;21016;-73
2022/01/22 10:22:49;;;;;;;1.90;1.47;;;7.60;99.90;;;;;;5010343;28;20423;-73
2022/01/22 10:25:27;;;;;;;3.87;2.50;;;7.60;99.90;;;;;;5010325;28;20548;-73
2022/01/22 10:28:05;;;;;;;2.43;2.33;;;7.70;99.90;;;;;;5010141;28;20511;-72
2022/01/22 10:30:36;;;;;;;1.27;1.17;;;7.70;99.90;;;;;;5010400;28;20439;-72
2022/01/22 10:33:29;;;;;;;3.20;0.77;;;7.60;99.90;;;;;;5010857;28;20522;-73
2022/01/22 10:36:17;;;;;;;2.50;1.90;;;7.50;99.90;;;;;;5010463;28;20431;-73
2022/01/22 10:38:47;;;;;;;1.57;1.17;;;7.60;99.90;;;;;;5010387;28;20803;-73
2022/01/22 10:41:15;;;;;;;1.67;1.27;;;7.60;99.90;;;;;;5021582;28;20435;-73
2022/01/22 10:43:51;;;;;;;0.90;0.90;;;7.50;99.90;;;;;;5009938;28;20430;-73
2022/01/22 10:46:20;;;;;;;2.10;1.37;;;7.40;99.90;;;;;;5008866;28;20430;-73
2022/01/22 10:49:08;;;;;;;1.50;1.40;;;7.30;99.90;;;;;;5006633;28;20427;-72
2022/01/22 10:51:58;;;;;;;2.50;2.30;;;7.20;99.90;;;;;;4999219;28;20919;-73
2022/01/22 10:54:29;;;;;;;1.40;1.30;;;7.20;99.90;;;;;;4991604;28;20428;-73
2022/01/22 10:57:12;;;;;;;3.27;3.07;;;7.10;99.90;;;;;;4991659;28;20991;-73
2022/01/22 10:59:45;;;;;;;7.43;2.43;;;7.10;99.90;;;;;;5009955;28;20462;-73
2022/01/22 11:02:14;;;;;;;1.30;1.23;;;7.20;99.90;;;;;;5008967;28;20447;-73
2022/01/22 11:04:42;;;;;;;2.00;1.80;;;7.10;99.90;;;;;;5010549;28;20462;-73
2022/01/22 11:07:14;;;;;;;1.77;1.67;;;7.10;99.90;;;;;;5009262;28;20451;-72
2022/01/22 11:09:40;;;;;;;6.13;1.53;;;7.00;99.90;;;;;;5008917;28;20943;-72
2022/01/22 11:12:06;;;;;;;0.60;0.60;;;7.10;99.90;;;;;;5009652;28;20500;-73
2022/01/22 11:14:34;;;;;;;1.47;1.43;;;7.00;99.90;;;;;;5008497;28;20184;-73
2022/01/22 11:17:00;;;;;;;0.80;0.80;;;7.10;99.90;;;;;;5008881;28;20551;-73
2022/01/22 11:19:30;;;;;;;1.10;1.10;;;7.00;99.90;;;;;;5009226;28;20466;-73
2022/01/22 11:21:57;;;;;;;1.77;1.67;;;7.10;99.90;;;;;;5009666;28;20424;-73
2022/01/22 11:24:25;;;;;;;1.07;1.07;;;7.10;99.90;;;;;;5009465;28;20443;-73
2022/01/22 11:26:53;;;;;;;0.90;0.80;;;7.20;99.90;;;;;;5008947;28;20459;-72
2022/01/22 11:29:29;;;;;;;0.60;0.60;;;7.30;99.90;;;;;;5009445;28;20515;-72
2022/01/22 11:31:56;;;;;;;2.50;1.43;;;7.30;99.90;;;;;;5010188;28;20731;-73
2022/01/22 11:34:25;;;;;;;0.87;0.87;;;7.40;99.90;;;;;;5011753;28;20441;-73
2022/01/22 11:37:17;;;;;;;0.60;0.50;;;7.50;99.90;;;;;;5008951;28;20459;-74
2022/01/22 11:39:43;;;;;;;0.80;0.80;;;7.50;99.90;;;;;;5007318;28;20455;-73
2022/01/22 11:42:09;;;;;;;2.50;1.23;;;7.50;99.90;;;;;;5011201;28;20974;-73
2022/01/22 11:44:46;;;;;;;1.10;1.00;;;7.50;99.90;;;;;;5011547;28;20169;-74
2022/01/22 11:47:14;;;;;;;1.83;1.73;;;7.50;99.90;;;;;;5009856;28;20546;-74
2022/01/22 11:50:00;;;;;;;3.83;3.63;;;7.40;99.90;;;;;;5010074;28;20439;-73
2022/01/22 11:52:29;;;;;;;1.00;0.90;;;7.50;99.90;;;;;;5009819;28;20454;-73
2022/01/22 11:55:01;;;;;;;2.63;2.53;;;7.50;99.90;;;;;;5006814;28;20479;-73
2022/01/22 11:57:30;;;;;;;2.87;2.70;;;7.40;99.90;;;;;;5008520;28;20521;-72
2022/01/22 12:00:14;;;;;;;2.73;1.67;;;7.40;99.90;;;;;;5008846;28;20470;-72
2022/01/22 12:02:40;;;;;;;6.00;2.70;;;7.40;99.90;;;;;;5010207;28;20458;-74
2022/01/22 12:05:07;;;;;;;6.50;1.10;;;7.30;99.90;;;;;;5008800;28;20467;-74
2022/01/22 12:07:35;;;;;;;1.07;1.07;;;7.30;99.90;;;;;;5015955;28;20253;-74
2022/01/22 12:10:43;;;;;;;0.60;0.60;;;7.20;99.90;;;;;;5020041;28;20427;-73
2022/01/22 12:16:08;;;;;;;0.60;0.60;;;7.10;99.90;;;;;;5010607;28;20434;-74
2022/01/22 12:18:40;;;;;;;4.53;1.13;;;7.10;99.90;;;;;;5009721;28;20454;-73
2022/01/22 12:23:31;;;;;;;0.60;0.60;;;7.20;99.90;;;;;;5009624;28;20439;-73
2022/01/22 12:25:59;;;;;;;3.03;2.73;;;7.20;99.90;;;;;;5009300;28;20173;-73
2022/01/22 12:28:39;;;;;;;4.70;4.33;;;7.10;99.90;;;;;;5009574;28;20192;-73
2022/01/22 12:31:16;;;;;;;3.87;3.67;;;7.20;99.90;;;;;;5013597;28;20434;-73
2022/01/22 12:33:42;;;;;;;1.97;1.87;;;7.20;99.90;;;;;;5012463;28;20919;-73
2022/01/22 12:36:18;;;;;;;1.47;1.37;;;7.20;99.90;;;;;;5010869;28;20438;-72
2022/01/22 12:38:56;;;;;;;0.73;0.73;;;7.30;99.90;;;;;;5010403;28;20551;-72
2022/01/22 12:41:35;;;;;;;1.13;1.13;;;7.30;99.90;;;;;;5012197;28;20430;-73
2022/01/22 12:44:26;;;;;;;1.43;1.33;;;7.30;99.90;;;;;;5009740;28;20434;-73
2022/01/22 12:46:54;;;;;;;2.20;2.10;;;7.40;99.90;;;;;;5012297;28;20494;-73
2022/01/22 12:49:22;;;;;;;1.10;1.10;;;7.30;99.90;;;;;;5012166;28;20541;-72
2022/01/22 12:51:56;;;;;;;12.03;3.07;;;7.30;99.90;;;;;;5011919;28;20443;-72
2022/01/22 12:54:29;;;;;;;4.00;1.53;;;7.30;99.90;;;;;;5018631;28;20965;-73
2022/01/22 12:57:10;;;;;;;1.97;1.00;;;7.40;99.90;;;;;;5014071;28;20474;-73
2022/01/22 12:59:54;;;;;;;11.63;1.50;;;7.40;99.90;;;;;;5012725;28;20549;-73
2022/01/22 13:02:20;;;;;;;1.50;1.40;;;7.40;99.90;;;;;;5013620;28;20430;-73
2022/01/22 13:05:01;;;;;;;3.23;1.07;;;7.40;99.90;;;;;;5013197;28;20434;-73
2022/01/22 13:07:27;;;;;;;0.60;0.60;;;7.40;99.90;;;;;;5012054;28;20851;-73
2022/01/22 13:09:58;;;;;;;2.20;2.10;;;7.40;99.90;;;;;;5010882;28;20427;-72
2022/01/22 13:12:26;;;;;;;5.23;2.53;;;7.50;99.90;;;;;;5001243;28;20459;-73
2022/01/22 13:14:56;;;;;;;2.57;2.40;;;7.40;99.90;;;;;;5011973;28;20904;-73
2022/01/22 13:17:32;;;;;;;2.13;2.03;;;7.40;99.90;;;;;;5011028;28;20455;-72
2022/01/22 13:20:00;;;;;;;4.50;3.40;;;7.40;99.90;;;;;;5010984;28;20502;-72
2022/01/22 13:22:33;;;;;;;2.90;1.43;;;7.40;99.90;;;;;;5012194;28;20432;-74
2022/01/22 13:25:07;;;;;;;0.97;0.97;;;7.30;99.90;;;;;;5012243;28;20438;-74
2022/01/22 13:27:33;;;;;;;1.70;1.60;;;7.30;99.90;;;;;;5012033;28;20537;-73
2022/01/22 13:29:59;;;;;;;11.17;1.80;;;7.30;99.90;;;;;;5020621;28;20431;-73
2022/01/22 13:32:50;;;;;;;0.80;0.70;;;7.30;99.90;;;;;;5014017;28;20441;-74
2022/01/22 13:40:40;;;;;;;4.10;2.20;;;7.30;99.90;;;;;;5013066;28;20558;-74
2022/01/22 13:48:50;;;;;;;1.23;1.13;;;7.30;99.90;;;;;;5015193;28;20468;-73
2022/01/22 13:51:16;;;;;;;1.93;1.37;;;7.30;99.90;;;;;;5011453;28;20431;-73
2022/01/22 13:53:45;;;;;;;0.77;0.77;;;7.30;99.90;;;;;;5025897;28;20443;-74
2022/01/22 13:56:12;;;;;;;2.70;2.50;;;7.30;99.90;;;;;;5028353;28;20179;-74
2022/01/22 13:58:38;;;;;;;3.90;2.20;;;7.20;99.90;;;;;;5014081;28;20533;-73
2022/01/22 14:01:30;;;;;;;2.10;2.00;;;7.20;99.90;;;;;;5011598;28;21081;-72
2022/01/22 14:04:08;;;;;;;1.03;1.03;;;7.20;99.90;;;;;;5011731;28;20656;-72
2022/01/22 14:06:34;;;;;;;1.67;1.57;;;7.30;99.90;;;;;;5012515;28;20399;-73
2022/01/22 14:09:14;;;;;;;3.93;3.50;;;7.20;99.90;;;;;;5011766;28;20423;-74
2022/01/22 14:12:03;;;;;;;2.10;2.00;;;7.20;99.90;;;;;;5013694;28;20842;-74
2022/01/22 14:14:31;;;;;;;0.83;0.83;;;7.30;99.90;;;;;;5015529;28;20450;-73
2022/01/22 14:17:11;;;;;;;0.70;0.70;;;7.30;99.90;;;;;;5002557;28;20447;-73
2022/01/22 14:19:37;;;;;;;0.63;0.63;;;7.30;99.90;;;;;;5025904;28;20466;-72
2022/01/22 14:22:03;;;;;;;1.13;1.13;;;7.20;99.90;;;;;;5011003;28;20529;-72
2022/01/22 14:24:30;;;;;;;3.73;1.67;;;7.30;99.90;;;;;;5010631;28;20255;-72
2022/01/22 14:26:56;;;;;;;2.50;2.40;;;7.30;99.90;;;;;;5008263;28;20479;-73
2022/01/22 14:29:21;;;;;;;1.33;1.23;;;7.20;99.90;;;;;;5009151;28;20443;-72
2022/01/22 14:31:51;;;;;;;2.03;1.60;;;7.20;99.90;;;;;;5026849;28;20215;-74
2022/01/22 14:34:31;;;;;;;5.23;2.30;;;7.30;99.90;;;;;;5014763;28;20204;-73
2022/01/22 14:36:57;;;;;;;2.27;1.10;;;7.20;99.90;;;;;;5012416;28;20538;-73
2022/01/22 14:44:39;;;;;;;1.03;0.93;;;7.30;99.90;;;;;;5011790;28;20430;-74
2022/01/22 14:47:14;;;;;;;4.07;3.77;;;7.20;99.90;;;;;;5012680;28;21017;-74
2022/01/22 14:49:41;;;;;;;5.13;2.30;;;7.20;99.90;;;;;;5011238;28;20430;-73
2022/01/22 14:52:09;;;;;;;4.90;3.03;;;7.20;99.90;;;;;;5010103;28;20448;-72
2022/01/22 14:54:40;;;;;;;0.90;0.90;;;7.10;99.90;;;;;;5009577;28;21015;-73
2022/01/22 14:57:07;;;;;;;0.63;0.60;;;7.10;99.90;;;;;;5011410;28;20466;-73
2022/01/22 14:59:34;;;;;;;2.90;1.70;;;7.10;99.90;;;;;;5011776;28;20546;-74